ADDS METAR Data INFO
IDs: Format: Raw Decoded Include TAF

Data at: 1018 UTC 12 Dec 2017

KIOB 120955Z AUTO 31008G16KT 10SM OVC030 03/M01 A2983 RMK AO2
KIOB 120935Z AUTO 32013G21KT 10SM OVC032 03/M01 A2983 RMK AO2
KIOB 120915Z AUTO 31009G15KT 280V340 10SM BKN032 OVC042 03/M01 A2983 RMK AO2
KIOB 120855Z AUTO 32006KT 10SM SCT034 BKN042 03/M01 A2983 RMK AO2
KIOB 120835Z AUTO 31007KT 10SM BKN034 BKN060 04/M01 A2983 RMK AO2
KIOB 120815Z AUTO 32010KT 10SM OVC034 05/00 A2983 RMK AO2
KIOB 120755Z AUTO 30009G17KT 10SM BKN034 BKN047 05/M01 A2982 RMK AO2
KIOB 120735Z AUTO 30010G18KT 10SM SCT047 05/M01 A2982 RMK AO2
KIOB 120715Z AUTO 30009G16KT 10SM CLR 05/M01 A2981 RMK AO2
KIOB 120655Z AUTO 29010KT 10SM CLR 05/M01 A2980 RMK AO2
KIOB 120635Z AUTO 30011G19KT 10SM CLR 06/M01 A2979 RMK AO2
KIOB 120615Z AUTO 29010G19KT 10SM CLR 06/M02 A2979 RMK AO2
KIOB 120555Z AUTO 29010G17KT 10SM CLR 06/M02 A2979 RMK AO2
KIOB 120535Z AUTO 29010G21KT 270V350 10SM CLR 07/M02 A2978 RMK AO2
KIOB 120515Z AUTO 29010G18KT 220V320 10SM SCT070 07/M02 A2978 RMK AO2
KIOB 120455Z AUTO 28006KT 10SM OVC070 07/M02 A2978 RMK AO2
KIOB 120435Z AUTO 29013G19KT 10SM OVC070 08/M02 A2978 RMK AO2
KIOB 120415Z AUTO 29012G22KT 10SM BKN070 08/M01 A2978 RMK AO2
KIOB 120355Z AUTO 29011G18KT 240V310 10SM SCT070 08/00 A2977 RMK AO2
KIOB 120335Z AUTO 29012G22KT 150V010 10SM CLR 08/00 A2976 RMK AO2
KIOB 120315Z AUTO 26011G16KT 10SM CLR 08/00 A2975 RMK AO2
KIOB 120255Z AUTO 26008G15KT 10SM CLR 09/00 A2974 RMK AO2
KIOB 120235Z AUTO 25010G18KT 10SM CLR 10/00 A2974 RMK AO2
KIOB 120215Z AUTO 25011G17KT 10SM CLR 10/00 A2974 RMK AO2
KIOB 120155Z AUTO 24013G18KT 10SM CLR 09/00 A2975 RMK AO2
KIOB 120135Z AUTO 24010G15KT 10SM CLR 08/M01 A2975 RMK AO2
KIOB 120115Z AUTO 24009G15KT 10SM CLR 08/M01 A2976 RMK AO2
KIOB 120055Z AUTO 24007KT 10SM CLR 08/M01 A2977 RMK AO2
KIOB 120035Z AUTO 24008KT 10SM CLR 08/M01 A2978 RMK AO2
KIOB 120015Z AUTO 24007KT 10SM CLR 08/M01 A2978 RMK AO2
KIOB 112355Z AUTO 24005KT 10SM CLR 08/M01 A2977 RMK AO2
KIOB 112335Z AUTO 21011G16KT 10SM CLR 08/M01 A2975 RMK AO2
KIOB 112315Z AUTO 21010KT 10SM CLR 08/M01 A2976 RMK AO2
KIOB 112255Z AUTO 22009KT 10SM CLR 08/M01 A2978 RMK AO2
KIOB 112235Z AUTO 23005KT 10SM CLR 09/M01 A2979 RMK AO2
KIOB 112215Z AUTO 21009KT 10SM SCT120 09/M01 A2979 RMK AO2
KIOB 112155Z AUTO 22009KT 10SM CLR 09/M01 A2980 RMK AO2
KIOB 112135Z AUTO 22007KT 10SM CLR 10/M01 A2982 RMK AO2
KIOB 112115Z AUTO 22011G15KT 10SM CLR 10/M01 A2982 RMK AO2
KIOB 112055Z AUTO 22010G17KT 10SM CLR 10/M02 A2983 RMK AO2
KIOB 112035Z AUTO 23007G15KT 10SM CLR 10/M01 A2985 RMK AO2
KIOB 112015Z AUTO 23009G17KT 10SM CLR 10/M01 A2987 RMK AO2
KIOB 111955Z AUTO 24011G16KT 10SM CLR 10/M01 A2989 RMK AO2
KIOB 111935Z AUTO 25011G15KT 10SM CLR 10/M01 A2990 RMK AO2
KIOB 111915Z AUTO 22012KT 10SM CLR 09/M01 A2992 RMK AO2
KIOB 111855Z AUTO 24009G15KT 10SM CLR 08/M02 A2993 RMK AO2
KIOB 111835Z AUTO 24010G15KT 10SM CLR 09/M02 A2994 RMK AO2
KIOB 111815Z AUTO 25008G15KT 10SM CLR 08/M02 A2997 RMK AO2
KIOB 111755Z AUTO 24011G15KT 10SM CLR 07/M02 A2999 RMK AO2
KIOB 111735Z AUTO 26008KT 230V290 10SM CLR 07/M01 A2999 RMK AO2
KIOB 111715Z AUTO 22009KT 10SM CLR 06/M02 A3001 RMK AO2
KIOB 111655Z AUTO 21009KT 10SM CLR 05/M02 A3003 RMK AO2
KIOB 111635Z AUTO 22009KT 10SM CLR 04/M02 A3004 RMK AO2
KIOB 111615Z AUTO 22008KT 10SM SCT090 04/M02 A3005 RMK AO2
KIOB 111555Z AUTO 24006KT 10SM CLR 03/M02 A3007 RMK AO2
KIOB 111535Z AUTO 22004KT 10SM CLR 02/M03 A3006 RMK AO2
KIOB 111515Z AUTO 23004KT 10SM CLR 02/M03 A3008 RMK AO2
KIOB 111455Z AUTO 24004KT 10SM CLR 01/M03 A3008 RMK AO2
KIOB 111435Z AUTO 22004KT 10SM CLR 01/M03 A3008 RMK AO2
KIOB 111415Z AUTO 22003KT 10SM CLR 00/M04 A3009 RMK AO2
KIOB 111355Z AUTO 22003KT 10SM CLR 00/M04 A3009 RMK AO2
KIOB 111335Z AUTO 24004KT 10SM CLR M02/M05 A3010 RMK AO2
KIOB 111315Z AUTO 24004KT 10SM CLR M05/M06 A3011 RMK AO2
KIOB 111255Z AUTO 24004KT 10SM CLR M05/M07 A3012 RMK AO2
KIOB 111235Z AUTO 23004KT 10SM CLR M05/M06 A3012 RMK AO2
KIOB 111215Z AUTO 23003KT 10SM CLR M05/M06 A3012 RMK AO2
KIOB 111155Z AUTO 23004KT 10SM CLR M05/M07 A3012 RMK AO2
KIOB 111135Z AUTO 22004KT 10SM CLR M03/M06 A3012 RMK AO2
KIOB 111115Z AUTO 23003KT 10SM CLR M03/M06 A3012 RMK AO2
KIOB 111055Z AUTO 25003KT 10SM CLR M03/M06 A3012 RMK AO2
KIOB 111035Z AUTO 00000KT 10SM CLR M03/M06 A3012 RMK AO2
KIOB 111015Z AUTO 00000KT 10SM CLR M02/M05 A3012 RMK AO2
KIOB 110955Z AUTO 25004KT 10SM CLR M02/M05 A3012 RMK AO2
KIOB 110935Z AUTO 25004KT 10SM CLR M02/M05 A3012 RMK AO2
KIOB 110915Z AUTO 24003KT 10SM CLR M01/M05 A3011 RMK AO2
KIOB 110855Z AUTO 24004KT 10SM CLR M01/M05 A3012 RMK AO2
KIOB 110835Z AUTO 26004KT 10SM CLR M01/M05 A3012 RMK AO2
KIOB 110815Z AUTO 27004KT 10SM CLR M01/M05 A3012 RMK AO2
KIOB 110755Z AUTO 27005KT 10SM CLR 00/M05 A3012 RMK AO2
KIOB 110735Z AUTO 26006KT 10SM CLR 00/M05 A3012 RMK AO2
KIOB 110715Z AUTO 27007KT 10SM CLR 00/M05 A3012 RMK AO2
KIOB 110655Z AUTO 26006KT 10SM CLR 00/M05 A3012 RMK AO2
KIOB 110635Z AUTO 27007KT 10SM CLR 00/M05 A3012 RMK AO2
KIOB 110615Z AUTO 27007KT 10SM CLR 00/M06 A3012 RMK AO2
KIOB 110555Z AUTO 26006KT 10SM CLR 00/M06 A3011 RMK AO2
KIOB 110535Z AUTO 25006KT 10SM CLR 00/M06 A3010 RMK AO2
KIOB 110515Z AUTO 25007KT 10SM CLR 00/M06 A3010 RMK AO2
KIOB 110455Z AUTO 26006KT 10SM CLR 00/M06 A3010 RMK AO2
KIOB 110435Z AUTO 26009KT 10SM CLR 01/M06 A3009 RMK AO2
KIOB 110415Z AUTO 25010G15KT 10SM CLR 01/M06 A3009 RMK AO2
KIOB 110355Z AUTO 25011G15KT 10SM CLR 01/M06 A3009 RMK AO2
KIOB 110335Z AUTO 24010G14KT 10SM CLR 00/M06 A3008 RMK AO2
KIOB 110315Z AUTO 25009KT 10SM CLR 00/M06 A3009 RMK AO2
KIOB 110255Z AUTO 27006KT 10SM CLR 00/M06 A3008 RMK AO2
KIOB 110235Z AUTO 24008KT 10SM CLR 00/M06 A3008 RMK AO2
KIOB 110215Z AUTO 25007KT 10SM CLR 00/M06 A3008 RMK AO2
KIOB 110155Z AUTO 24007KT 10SM CLR 00/M06 A3008 RMK AO2
KIOB 110135Z AUTO 25006KT 10SM CLR 00/M06 A3008 RMK AO2
KIOB 110115Z AUTO 25006KT 10SM CLR 00/M07 A3008 RMK AO2
KIOB 110055Z AUTO 25006KT 10SM CLR 00/M07 A3008 RMK AO2
KIOB 110035Z AUTO 26007KT 10SM CLR 00/M07 A3008 RMK AO2
KIOB 110015Z AUTO 26006KT 10SM CLR 01/M07 A3007 RMK AO2
KIOB 102355Z AUTO 26007KT 10SM CLR 01/M07 A3006 RMK AO2
KIOB 102335Z AUTO 25006KT 10SM CLR 01/M07 A3006 RMK AO2
KIOB 102315Z AUTO 25007KT 10SM CLR 01/M07 A3005 RMK AO2
KIOB 102255Z AUTO 24008KT 10SM CLR 01/M07 A3004 RMK AO2
KIOB 102235Z AUTO 23008KT 200V260 10SM CLR 01/M07 A3003 RMK AO2